sensor_id;sensor_type;location;lat;lon;timestamp;temperature;humidity
14687;DHT22;7431;49.440;11.084;2023-12-20T00:00:47;5.80;99.90
14687;DHT22;7431;49.440;11.084;2023-12-20T00:03:13;5.80;99.90
14687;DHT22;7431;49.440;11.084;2023-12-20T00:05:39;6.00;99.90
14687;DHT22;7431;49.440;11.084;2023-12-20T00:08:06;5.90;99.90
14687;DHT22;7431;49.440;11.084;2023-12-20T00:10:33;6.50;99.90
14687;DHT22;7431;49.440;11.084;2023-12-20T00:12:59;5.90;99.90
14687;DHT22;7431;49.440;11.084;2023-12-20T00:15:24;5.90;99.90
14687;DHT22;7431;49.440;11.084;2023-12-20T00:17:50;5.90;99.90
14687;DHT22;7431;49.440;11.084;2023-12-20T00:20:16;5.90;99.90
14687;DHT22;7431;49.440;11.084;2023-12-20T00:22:41;5.90;99.90
14687;DHT22;7431;49.440;11.084;2023-12-20T00:25:07;5.90;99.90
14687;DHT22;7431;49.440;11.084;2023-12-20T00:27:33;5.90;99.90
14687;DHT22;7431;49.440;11.084;2023-12-20T00:29:58;5.90;99.90
14687;DHT22;7431;49.440;11.084;2023-12-20T00:32:24;6.00;99.90
14687;DHT22;7431;49.440;11.084;2023-12-20T00:34:49;5.90;99.90
14687;DHT22;7431;49.440;11.084;2023-12-20T00:37:15;5.90;99.90
14687;DHT22;7431;49.440;11.084;2023-12-20T00:39:41;5.90;99.90
14687;DHT22;7431;49.440;11.084;2023-12-20T00:42:07;5.90;99.90
14687;DHT22;7431;49.440;11.084;2023-12-20T00:44:33;5.90;99.90
14687;DHT22;7431;49.440;11.084;2023-12-20T00:46:58;5.90;99.90
14687;DHT22;7431;49.440;11.084;2023-12-20T00:49:24;5.90;99.90
14687;DHT22;7431;49.440;11.084;2023-12-20T00:51:49;5.90;99.90
14687;DHT22;7431;49.440;11.084;2023-12-20T00:54:16;6.50;99.90
14687;DHT22;7431;49.440;11.084;2023-12-20T00:56:44;5.80;99.90
14687;DHT22;7431;49.440;11.084;2023-12-20T00:59:09;5.80;99.90
14687;DHT22;7431;49.440;11.084;2023-12-20T01:01:35;5.80;99.90
14687;DHT22;7431;49.440;11.084;2023-12-20T01:04:00;5.80;99.90
14687;DHT22;7431;49.440;11.084;2023-12-20T01:06:26;5.80;99.90
14687;DHT22;7431;49.440;11.084;2023-12-20T01:08:51;5.80;99.90
14687;DHT22;7431;49.440;11.084;2023-12-20T01:11:17;5.80;99.90
14687;DHT22;7431;49.440;11.084;2023-12-20T01:13:42;5.80;99.90
14687;DHT22;7431;49.440;11.084;2023-12-20T01:16:10;5.80;99.90
14687;DHT22;7431;49.440;11.084;2023-12-20T01:18:37;5.80;99.90
14687;DHT22;7431;49.440;11.084;2023-12-20T01:21:04;6.20;99.90
14687;DHT22;7431;49.440;11.084;2023-12-20T01:23:30;5.80;99.90
14687;DHT22;7431;49.440;11.084;2023-12-20T01:25:56;5.80;99.90
14687;DHT22;7431;49.440;11.084;2023-12-20T01:28:21;5.80;99.90
14687;DHT22;7431;49.440;11.084;2023-12-20T01:30:47;5.80;99.90
14687;DHT22;7431;49.440;11.084;2023-12-20T01:33:13;6.30;99.90
14687;DHT22;7431;49.440;11.084;2023-12-20T01:35:38;5.80;99.90
14687;DHT22;7431;49.440;11.084;2023-12-20T01:38:04;5.80;99.90
14687;DHT22;7431;49.440;11.084;2023-12-20T01:40:29;5.80;99.90
14687;DHT22;7431;49.440;11.084;2023-12-20T01:42:59;5.80;99.90
14687;DHT22;7431;49.440;11.084;2023-12-20T01:45:25;6.00;99.90
14687;DHT22;7431;49.440;11.084;2023-12-20T01:47:51;5.80;99.90
14687;DHT22;7431;49.440;11.084;2023-12-20T01:50:17;5.80;99.90
14687;DHT22;7431;49.440;11.084;2023-12-20T01:52:43;5.80;99.90
14687;DHT22;7431;49.440;11.084;2023-12-20T01:55:09;5.80;99.90
14687;DHT22;7431;49.440;11.084;2023-12-20T01:57:40;5.80;99.90
14687;DHT22;7431;49.440;11.084;2023-12-20T02:00:06;5.80;99.90
14687;DHT22;7431;49.440;11.084;2023-12-20T02:02:37;5.80;99.90
14687;DHT22;7431;49.440;11.084;2023-12-20T02:05:05;5.80;99.90
14687;DHT22;7431;49.440;11.084;2023-12-20T02:07:31;5.80;99.90
14687;DHT22;7431;49.440;11.084;2023-12-20T02:09:57;5.80;99.90
14687;DHT22;7431;49.440;11.084;2023-12-20T02:12:22;6.30;99.90
14687;DHT22;7431;49.440;11.084;2023-12-20T02:14:48;5.80;99.90
14687;DHT22;7431;49.440;11.084;2023-12-20T02:17:15;6.40;99.90
14687;DHT22;7431;49.440;11.084;2023-12-20T02:19:41;5.80;99.90
14687;DHT22;7431;49.440;11.084;2023-12-20T02:22:12;5.70;99.90
14687;DHT22;7431;49.440;11.084;2023-12-20T02:24:38;5.70;99.90
14687;DHT22;7431;49.440;11.084;2023-12-20T02:27:06;5.70;99.90
14687;DHT22;7431;49.440;11.084;2023-12-20T02:29:33;5.70;99.90
14687;DHT22;7431;49.440;11.084;2023-12-20T02:31:59;5.70;99.90
14687;DHT22;7431;49.440;11.084;2023-12-20T02:34:24;5.60;99.90
14687;DHT22;7431;49.440;11.084;2023-12-20T02:36:50;5.60;99.90
14687;DHT22;7431;49.440;11.084;2023-12-20T02:39:16;5.60;99.90
14687;DHT22;7431;49.440;11.084;2023-12-20T02:41:41;5.50;99.90
14687;DHT22;7431;49.440;11.084;2023-12-20T02:44:07;5.50;99.90
14687;DHT22;7431;49.440;11.084;2023-12-20T02:46:32;5.50;99.90
14687;DHT22;7431;49.440;11.084;2023-12-20T02:48:58;5.50;99.90
14687;DHT22;7431;49.440;11.084;2023-12-20T02:51:23;5.50;99.90
14687;DHT22;7431;49.440;11.084;2023-12-20T02:53:49;5.40;99.90
14687;DHT22;7431;49.440;11.084;2023-12-20T02:56:14;5.40;99.90
14687;DHT22;7431;49.440;11.084;2023-12-20T02:58:40;5.30;99.90
14687;DHT22;7431;49.440;11.084;2023-12-20T03:01:06;5.30;99.90
14687;DHT22;7431;49.440;11.084;2023-12-20T03:03:32;5.30;99.90
14687;DHT22;7431;49.440;11.084;2023-12-20T03:05:57;5.20;99.90
14687;DHT22;7431;49.440;11.084;2023-12-20T03:08:23;5.20;99.90
14687;DHT22;7431;49.440;11.084;2023-12-20T03:10:48;5.20;99.90
14687;DHT22;7431;49.440;11.084;2023-12-20T03:13:14;5.10;99.90
14687;DHT22;7431;49.440;11.084;2023-12-20T03:15:40;5.10;99.90
14687;DHT22;7431;49.440;11.084;2023-12-20T03:18:05;5.10;99.90
14687;DHT22;7431;49.440;11.084;2023-12-20T03:20:31;5.10;99.90
14687;DHT22;7431;49.440;11.084;2023-12-20T03:23:00;5.10;99.90
14687;DHT22;7431;49.440;11.084;2023-12-20T03:25:26;5.10;99.90
14687;DHT22;7431;49.440;11.084;2023-12-20T03:27:52;5.10;99.90
14687;DHT22;7431;49.440;11.084;2023-12-20T03:30:18;5.00;99.90
14687;DHT22;7431;49.440;11.084;2023-12-20T03:32:44;5.00;99.90
14687;DHT22;7431;49.440;11.084;2023-12-20T03:35:10;5.00;99.90
14687;DHT22;7431;49.440;11.084;2023-12-20T03:37:35;5.00;99.90
14687;DHT22;7431;49.440;11.084;2023-12-20T03:40:01;4.90;99.90
14687;DHT22;7431;49.440;11.084;2023-12-20T03:42:27;4.90;99.90
14687;DHT22;7431;49.440;11.084;2023-12-20T03:44:52;4.90;99.90
14687;DHT22;7431;49.440;11.084;2023-12-20T03:47:18;4.90;99.90
14687;DHT22;7431;49.440;11.084;2023-12-20T03:49:43;4.90;99.90
14687;DHT22;7431;49.440;11.084;2023-12-20T03:52:12;4.90;99.90
14687;DHT22;7431;49.440;11.084;2023-12-20T03:54:37;4.80;99.90
14687;DHT22;7431;49.440;11.084;2023-12-20T03:57:03;4.90;99.90
14687;DHT22;7431;49.440;11.084;2023-12-20T03:59:29;4.90;99.90
14687;DHT22;7431;49.440;11.084;2023-12-20T04:01:55;4.80;99.90
14687;DHT22;7431;49.440;11.084;2023-12-20T04:04:21;4.80;99.90
14687;DHT22;7431;49.440;11.084;2023-12-20T04:06:46;4.80;99.90
14687;DHT22;7431;49.440;11.084;2023-12-20T04:09:12;4.80;99.90
14687;DHT22;7431;49.440;11.084;2023-12-20T04:11:37;4.90;99.90
14687;DHT22;7431;49.440;11.084;2023-12-20T04:14:03;4.80;99.90
14687;DHT22;7431;49.440;11.084;2023-12-20T04:16:30;4.80;99.90
14687;DHT22;7431;49.440;11.084;2023-12-20T04:18:56;4.80;99.90
14687;DHT22;7431;49.440;11.084;2023-12-20T04:21:21;4.80;99.90
14687;DHT22;7431;49.440;11.084;2023-12-20T04:23:47;4.80;99.90
14687;DHT22;7431;49.440;11.084;2023-12-20T04:26:12;4.80;99.90
14687;DHT22;7431;49.440;11.084;2023-12-20T04:28:38;4.80;99.90
14687;DHT22;7431;49.440;11.084;2023-12-20T04:31:03;4.80;99.90
14687;DHT22;7431;49.440;11.084;2023-12-20T04:33:29;4.80;99.90
14687;DHT22;7431;49.440;11.084;2023-12-20T04:35:55;4.80;99.90
14687;DHT22;7431;49.440;11.084;2023-12-20T04:38:20;4.80;99.90
14687;DHT22;7431;49.440;11.084;2023-12-20T04:40:46;4.80;99.90
14687;DHT22;7431;49.440;11.084;2023-12-20T04:43:11;4.80;99.90
14687;DHT22;7431;49.440;11.084;2023-12-20T04:45:37;4.80;99.90
14687;DHT22;7431;49.440;11.084;2023-12-20T04:48:03;4.80;99.90
14687;DHT22;7431;49.440;11.084;2023-12-20T04:50:29;4.80;99.90
14687;DHT22;7431;49.440;11.084;2023-12-20T04:52:55;4.80;99.90
14687;DHT22;7431;49.440;11.084;2023-12-20T04:55:20;4.80;99.90
14687;DHT22;7431;49.440;11.084;2023-12-20T04:57:46;4.80;99.90
14687;DHT22;7431;49.440;11.084;2023-12-20T05:00:12;4.80;99.90
14687;DHT22;7431;49.440;11.084;2023-12-20T05:02:37;4.80;99.90
14687;DHT22;7431;49.440;11.084;2023-12-20T05:05:03;4.80;99.90
14687;DHT22;7431;49.440;11.084;2023-12-20T05:07:29;4.80;99.90
14687;DHT22;7431;49.440;11.084;2023-12-20T05:09:54;4.80;99.90
14687;DHT22;7431;49.440;11.084;2023-12-20T05:12:20;4.60;99.90
14687;DHT22;7431;49.440;11.084;2023-12-20T05:14:46;4.80;99.90
14687;DHT22;7431;49.440;11.084;2023-12-20T05:17:11;4.80;99.90
14687;DHT22;7431;49.440;11.084;2023-12-20T05:19:37;4.80;99.90
14687;DHT22;7431;49.440;11.084;2023-12-20T05:22:03;4.80;99.90
14687;DHT22;7431;49.440;11.084;2023-12-20T05:24:28;4.80;99.90
14687;DHT22;7431;49.440;11.084;2023-12-20T05:26:54;5.10;99.90
14687;DHT22;7431;49.440;11.084;2023-12-20T05:29:20;4.80;99.90
14687;DHT22;7431;49.440;11.084;2023-12-20T05:31:45;4.80;99.90
14687;DHT22;7431;49.440;11.084;2023-12-20T05:34:11;4.80;99.90
14687;DHT22;7431;49.440;11.084;2023-12-20T05:36:37;4.80;99.90
14687;DHT22;7431;49.440;11.084;2023-12-20T05:39:04;4.70;99.90
14687;DHT22;7431;49.440;11.084;2023-12-20T05:41:30;5.30;99.90
14687;DHT22;7431;49.440;11.084;2023-12-20T05:43:56;4.70;99.90
14687;DHT22;7431;49.440;11.084;2023-12-20T05:46:23;4.70;99.90
14687;DHT22;7431;49.440;11.084;2023-12-20T05:48:49;4.70;99.90
14687;DHT22;7431;49.440;11.084;2023-12-20T05:51:15;4.70;99.90
14687;DHT22;7431;49.440;11.084;2023-12-20T05:53:40;4.70;99.90
14687;DHT22;7431;49.440;11.084;2023-12-20T05:56:06;4.70;99.90
14687;DHT22;7431;49.440;11.084;2023-12-20T05:58:32;4.70;99.90
14687;DHT22;7431;49.440;11.084;2023-12-20T06:00:58;4.70;99.90
14687;DHT22;7431;49.440;11.084;2023-12-20T06:03:23;5.00;99.90
14687;DHT22;7431;49.440;11.084;2023-12-20T06:05:49;4.70;99.90
14687;DHT22;7431;49.440;11.084;2023-12-20T06:08:16;4.60;99.90
14687;DHT22;7431;49.440;11.084;2023-12-20T06:10:41;4.70;99.90
14687;DHT22;7431;49.440;11.084;2023-12-20T06:13:07;4.70;99.90
14687;DHT22;7431;49.440;11.084;2023-12-20T06:15:33;4.70;99.90
14687;DHT22;7431;49.440;11.084;2023-12-20T06:17:58;4.70;99.90
14687;DHT22;7431;49.440;11.084;2023-12-20T06:20:24;4.70;99.90
14687;DHT22;7431;49.440;11.084;2023-12-20T06:22:53;4.70;99.90
14687;DHT22;7431;49.440;11.084;2023-12-20T06:25:18;4.70;99.90
14687;DHT22;7431;49.440;11.084;2023-12-20T06:27:44;4.70;99.90
14687;DHT22;7431;49.440;11.084;2023-12-20T06:30:10;4.70;99.90
14687;DHT22;7431;49.440;11.084;2023-12-20T06:32:35;4.70;99.90
14687;DHT22;7431;49.440;11.084;2023-12-20T06:35:01;4.70;99.90
14687;DHT22;7431;49.440;11.084;2023-12-20T06:37:27;4.70;99.90
14687;DHT22;7431;49.440;11.084;2023-12-20T06:39:52;4.70;99.90
14687;DHT22;7431;49.440;11.084;2023-12-20T06:42:18;4.70;99.90
14687;DHT22;7431;49.440;11.084;2023-12-20T06:44:44;4.70;99.90
14687;DHT22;7431;49.440;11.084;2023-12-20T06:47:09;4.70;99.90
14687;DHT22;7431;49.440;11.084;2023-12-20T06:49:35;4.70;99.90
14687;DHT22;7431;49.440;11.084;2023-12-20T06:52:10;4.70;99.90
14687;DHT22;7431;49.440;11.084;2023-12-20T06:54:46;4.70;99.90
14687;DHT22;7431;49.440;11.084;2023-12-20T06:57:21;4.70;99.90
14687;DHT22;7431;49.440;11.084;2023-12-20T06:59:47;4.70;99.90
14687;DHT22;7431;49.440;11.084;2023-12-20T07:02:12;4.70;99.90
14687;DHT22;7431;49.440;11.084;2023-12-20T07:04:41;5.20;99.90
14687;DHT22;7431;49.440;11.084;2023-12-20T07:07:07;4.80;99.90
14687;DHT22;7431;49.440;11.084;2023-12-20T07:09:33;4.80;99.90
14687;DHT22;7431;49.440;11.084;2023-12-20T07:11:59;4.90;99.90
14687;DHT22;7431;49.440;11.084;2023-12-20T07:14:25;4.80;99.90
14687;DHT22;7431;49.440;11.084;2023-12-20T07:16:50;4.80;99.90
14687;DHT22;7431;49.440;11.084;2023-12-20T07:19:18;4.80;99.90
14687;DHT22;7431;49.440;11.084;2023-12-20T07:21:44;4.80;99.90
14687;DHT22;7431;49.440;11.084;2023-12-20T07:24:10;4.80;99.90
14687;DHT22;7431;49.440;11.084;2023-12-20T07:26:35;4.80;99.90
14687;DHT22;7431;49.440;11.084;2023-12-20T07:29:03;4.90;99.90
14687;DHT22;7431;49.440;11.084;2023-12-20T07:31:29;4.90;99.90
14687;DHT22;7431;49.440;11.084;2023-12-20T07:33:56;4.90;99.90
14687;DHT22;7431;49.440;11.084;2023-12-20T07:36:21;5.00;99.90
14687;DHT22;7431;49.440;11.084;2023-12-20T07:38:47;5.00;99.90
14687;DHT22;7431;49.440;11.084;2023-12-20T07:41:12;5.00;99.90
14687;DHT22;7431;49.440;11.084;2023-12-20T07:43:38;5.00;99.90
14687;DHT22;7431;49.440;11.084;2023-12-20T07:46:08;5.00;99.90
14687;DHT22;7431;49.440;11.084;2023-12-20T07:48:37;5.10;99.90
14687;DHT22;7431;49.440;11.084;2023-12-20T07:51:04;5.10;99.90
14687;DHT22;7431;49.440;11.084;2023-12-20T07:53:29;5.10;99.90
14687;DHT22;7431;49.440;11.084;2023-12-20T07:55:55;5.10;99.90
14687;DHT22;7431;49.440;11.084;2023-12-20T07:58:21;5.10;99.90
14687;DHT22;7431;49.440;11.084;2023-12-20T08:00:47;5.10;99.90
14687;DHT22;7431;49.440;11.084;2023-12-20T08:03:13;5.20;99.90
14687;DHT22;7431;49.440;11.084;2023-12-20T08:05:38;5.20;99.90
14687;DHT22;7431;49.440;11.084;2023-12-20T08:08:06;5.30;99.90
14687;DHT22;7431;49.440;11.084;2023-12-20T08:10:31;5.30;99.90
14687;DHT22;7431;49.440;11.084;2023-12-20T08:12:57;5.30;99.90
14687;DHT22;7431;49.440;11.084;2023-12-20T08:15:23;5.30;99.90
14687;DHT22;7431;49.440;11.084;2023-12-20T08:17:49;5.30;99.90
14687;DHT22;7431;49.440;11.084;2023-12-20T08:20:16;5.30;99.90
14687;DHT22;7431;49.440;11.084;2023-12-20T08:22:42;5.50;99.90
14687;DHT22;7431;49.440;11.084;2023-12-20T08:25:07;5.60;99.90
14687;DHT22;7431;49.440;11.084;2023-12-20T08:27:36;5.60;99.90
14687;DHT22;7431;49.440;11.084;2023-12-20T08:30:02;5.60;99.90
14687;DHT22;7431;49.440;11.084;2023-12-20T08:32:28;5.70;99.90
14687;DHT22;7431;49.440;11.084;2023-12-20T08:34:54;5.80;99.90
14687;DHT22;7431;49.440;11.084;2023-12-20T08:37:20;5.90;99.90
14687;DHT22;7431;49.440;11.084;2023-12-20T08:39:45;6.20;99.90
14687;DHT22;7431;49.440;11.084;2023-12-20T08:42:11;6.30;99.90
14687;DHT22;7431;49.440;11.084;2023-12-20T08:44:36;6.40;99.90
14687;DHT22;7431;49.440;11.084;2023-12-20T08:47:02;6.40;99.90
14687;DHT22;7431;49.440;11.084;2023-12-20T08:49:28;6.40;99.90
14687;DHT22;7431;49.440;11.084;2023-12-20T08:51:53;7.10;99.90
14687;DHT22;7431;49.440;11.084;2023-12-20T08:54:19;6.20;99.90
14687;DHT22;7431;49.440;11.084;2023-12-20T08:56:45;6.10;99.90
14687;DHT22;7431;49.440;11.084;2023-12-20T08:59:11;6.00;99.90
14687;DHT22;7431;49.440;11.084;2023-12-20T09:01:37;6.00;99.90
14687;DHT22;7431;49.440;11.084;2023-12-20T09:04:03;6.80;99.90
14687;DHT22;7431;49.440;11.084;2023-12-20T09:06:28;5.90;99.90
14687;DHT22;7431;49.440;11.084;2023-12-20T09:08:54;6.60;99.90
14687;DHT22;7431;49.440;11.084;2023-12-20T09:11:19;5.60;99.90
14687;DHT22;7431;49.440;11.084;2023-12-20T09:13:45;5.50;99.90
14687;DHT22;7431;49.440;11.084;2023-12-20T09:16:11;5.60;99.90
14687;DHT22;7431;49.440;11.084;2023-12-20T09:18:38;5.80;99.90
14687;DHT22;7431;49.440;11.084;2023-12-20T09:21:03;6.10;99.90
14687;DHT22;7431;49.440;11.084;2023-12-20T09:23:29;6.20;99.90
14687;DHT22;7431;49.440;11.084;2023-12-20T09:25:55;6.10;99.90
14687;DHT22;7431;49.440;11.084;2023-12-20T09:28:20;6.10;99.90
14687;DHT22;7431;49.440;11.084;2023-12-20T09:30:46;6.50;99.90
14687;DHT22;7431;49.440;11.084;2023-12-20T09:33:14;6.40;99.90
14687;DHT22;7431;49.440;11.084;2023-12-20T09:35:39;7.60;99.90
14687;DHT22;7431;49.440;11.084;2023-12-20T09:38:05;6.60;99.90
14687;DHT22;7431;49.440;11.084;2023-12-20T09:40:32;6.60;99.90
14687;DHT22;7431;49.440;11.084;2023-12-20T09:43:13;6.60;99.90
14687;DHT22;7431;49.440;11.084;2023-12-20T09:45:40;6.60;99.90
14687;DHT22;7431;49.440;11.084;2023-12-20T09:48:07;6.50;99.90
14687;DHT22;7431;49.440;11.084;2023-12-20T09:50:33;6.50;99.90
14687;DHT22;7431;49.440;11.084;2023-12-20T09:53:01;6.50;99.90
14687;DHT22;7431;49.440;11.084;2023-12-20T09:55:30;7.40;99.90
14687;DHT22;7431;49.440;11.084;2023-12-20T09:57:55;6.50;99.90
14687;DHT22;7431;49.440;11.084;2023-12-20T10:00:21;7.00;99.90
14687;DHT22;7431;49.440;11.084;2023-12-20T10:03:00;6.40;99.90
14687;DHT22;7431;49.440;11.084;2023-12-20T10:07:52;6.40;99.90
14687;DHT22;7431;49.440;11.084;2023-12-20T10:10:18;6.50;99.90
14687;DHT22;7431;49.440;11.084;2023-12-20T10:13:02;6.50;99.90
14687;DHT22;7431;49.440;11.084;2023-12-20T10:15:28;6.60;99.90
14687;DHT22;7431;49.440;11.084;2023-12-20T10:17:54;6.70;99.90
14687;DHT22;7431;49.440;11.084;2023-12-20T10:20:20;6.30;99.90
14687;DHT22;7431;49.440;11.084;2023-12-20T10:22:46;6.40;99.90
14687;DHT22;7431;49.440;11.084;2023-12-20T10:25:12;6.60;99.90
14687;DHT22;7431;49.440;11.084;2023-12-20T10:27:38;6.80;99.90
14687;DHT22;7431;49.440;11.084;2023-12-20T10:30:04;7.80;99.90
14687;DHT22;7431;49.440;11.084;2023-12-20T10:32:30;7.30;99.90
14687;DHT22;7431;49.440;11.084;2023-12-20T10:34:56;8.40;99.90
14687;DHT22;7431;49.440;11.084;2023-12-20T10:37:22;7.50;99.90
14687;DHT22;7431;49.440;11.084;2023-12-20T10:39:53;8.20;99.90
14687;DHT22;7431;49.440;11.084;2023-12-20T10:42:22;7.70;99.90
14687;DHT22;7431;49.440;11.084;2023-12-20T10:44:49;7.70;99.90
14687;DHT22;7431;49.440;11.084;2023-12-20T10:47:14;7.70;99.90
14687;DHT22;7431;49.440;11.084;2023-12-20T10:49:40;7.70;99.90
14687;DHT22;7431;49.440;11.084;2023-12-20T10:52:08;7.60;99.90
14687;DHT22;7431;49.440;11.084;2023-12-20T10:54:34;7.60;99.90
14687;DHT22;7431;49.440;11.084;2023-12-20T10:57:00;7.50;99.90
14687;DHT22;7431;49.440;11.084;2023-12-20T10:59:29;7.40;99.90
14687;DHT22;7431;49.440;11.084;2023-12-20T11:02:00;7.20;99.90
14687;DHT22;7431;49.440;11.084;2023-12-20T11:07:16;6.90;99.90
14687;DHT22;7431;49.440;11.084;2023-12-20T11:09:47;7.10;99.90
14687;DHT22;7431;49.440;11.084;2023-12-20T11:15:21;7.10;99.90
14687;DHT22;7431;49.440;11.084;2023-12-20T11:17:55;7.20;99.90
14687;DHT22;7431;49.440;11.084;2023-12-20T11:20:23;7.20;99.90
14687;DHT22;7431;49.440;11.084;2023-12-20T11:22:54;7.50;99.90
14687;DHT22;7431;49.440;11.084;2023-12-20T11:25:20;7.20;99.90
14687;DHT22;7431;49.440;11.084;2023-12-20T11:28:06;7.20;99.90
14687;DHT22;7431;49.440;11.084;2023-12-20T11:30:54;7.10;99.90
14687;DHT22;7431;49.440;11.084;2023-12-20T11:33:24;7.10;99.90
14687;DHT22;7431;49.440;11.084;2023-12-20T11:35:50;7.00;99.90
14687;DHT22;7431;49.440;11.084;2023-12-20T11:38:16;7.10;99.90
14687;DHT22;7431;49.440;11.084;2023-12-20T11:40:43;7.00;99.90
14687;DHT22;7431;49.440;11.084;2023-12-20T11:43:09;7.10;99.90
14687;DHT22;7431;49.440;11.084;2023-12-20T11:45:35;6.20;99.90
14687;DHT22;7431;49.440;11.084;2023-12-20T11:48:02;7.20;99.90
14687;DHT22;7431;49.440;11.084;2023-12-20T11:50:28;7.40;99.90
14687;DHT22;7431;49.440;11.084;2023-12-20T11:52:55;7.40;99.90
14687;DHT22;7431;49.440;11.084;2023-12-20T11:55:22;7.50;99.90
14687;DHT22;7431;49.440;11.084;2023-12-20T11:57:50;8.20;99.90
14687;DHT22;7431;49.440;11.084;2023-12-20T12:00:16;7.80;99.90
14687;DHT22;7431;49.440;11.084;2023-12-20T12:02:42;7.10;99.90
14687;DHT22;7431;49.440;11.084;2023-12-20T12:05:08;7.10;1.00
14687;DHT22;7431;49.440;11.084;2023-12-20T12:07:34;7.00;1.00
14687;DHT22;7431;49.440;11.084;2023-12-20T12:10:00;6.90;1.00
14687;DHT22;7431;49.440;11.084;2023-12-20T12:12:26;6.90;1.00
14687;DHT22;7431;49.440;11.084;2023-12-20T12:14:53;6.80;1.00
14687;DHT22;7431;49.440;11.084;2023-12-20T12:17:19;6.90;1.00
14687;DHT22;7431;49.440;11.084;2023-12-20T12:19:45;6.90;1.00
14687;DHT22;7431;49.440;11.084;2023-12-20T12:22:15;6.90;99.90
14687;DHT22;7431;49.440;11.084;2023-12-20T12:24:46;7.00;1.00
14687;DHT22;7431;49.440;11.084;2023-12-20T12:27:13;7.10;99.90
14687;DHT22;7431;49.440;11.084;2023-12-20T12:29:39;7.90;99.90
14687;DHT22;7431;49.440;11.084;2023-12-20T12:32:08;7.30;99.90
14687;DHT22;7431;49.440;11.084;2023-12-20T12:34:35;7.40;99.90
14687;DHT22;7431;49.440;11.084;2023-12-20T12:37:01;7.40;99.90
14687;DHT22;7431;49.440;11.084;2023-12-20T12:39:27;7.20;99.90
14687;DHT22;7431;49.440;11.084;2023-12-20T12:41:53;7.20;99.90
14687;DHT22;7431;49.440;11.084;2023-12-20T12:44:19;7.10;99.90
14687;DHT22;7431;49.440;11.084;2023-12-20T12:46:46;7.20;99.90
14687;DHT22;7431;49.440;11.084;2023-12-20T12:49:12;7.10;99.90
14687;DHT22;7431;49.440;11.084;2023-12-20T12:51:37;7.10;99.90
14687;DHT22;7431;49.440;11.084;2023-12-20T12:54:03;7.20;99.90
14687;DHT22;7431;49.440;11.084;2023-12-20T12:56:29;7.20;99.90
14687;DHT22;7431;49.440;11.084;2023-12-20T12:58:55;7.30;99.90
14687;DHT22;7431;49.440;11.084;2023-12-20T13:01:21;7.40;99.90
14687;DHT22;7431;49.440;11.084;2023-12-20T13:03:46;7.40;99.90
14687;DHT22;7431;49.440;11.084;2023-12-20T13:06:12;7.50;99.90
14687;DHT22;7431;49.440;11.084;2023-12-20T13:08:38;7.40;99.90
14687;DHT22;7431;49.440;11.084;2023-12-20T13:11:03;7.30;99.90
14687;DHT22;7431;49.440;11.084;2023-12-20T13:13:30;7.20;99.90
14687;DHT22;7431;49.440;11.084;2023-12-20T13:15:56;7.20;99.90
14687;DHT22;7431;49.440;11.084;2023-12-20T13:18:22;7.30;99.90
14687;DHT22;7431;49.440;11.084;2023-12-20T13:20:48;7.10;99.90
14687;DHT22;7431;49.440;11.084;2023-12-20T13:23:14;7.10;99.90
14687;DHT22;7431;49.440;11.084;2023-12-20T13:25:41;6.90;99.90
14687;DHT22;7431;49.440;11.084;2023-12-20T13:28:07;6.70;99.90
14687;DHT22;7431;49.440;11.084;2023-12-20T13:30:33;6.60;99.90
14687;DHT22;7431;49.440;11.084;2023-12-20T13:32:59;6.60;99.90
14687;DHT22;7431;49.440;11.084;2023-12-20T13:35:25;8.20;99.90
14687;DHT22;7431;49.440;11.084;2023-12-20T13:37:50;7.70;99.90
14687;DHT22;7431;49.440;11.084;2023-12-20T13:40:16;7.20;99.90
14687;DHT22;7431;49.440;11.084;2023-12-20T13:42:41;7.20;99.90
14687;DHT22;7431;49.440;11.084;2023-12-20T13:45:07;7.10;99.90
14687;DHT22;7431;49.440;11.084;2023-12-20T13:47:33;7.00;99.90
14687;DHT22;7431;49.440;11.084;2023-12-20T13:49:59;6.90;99.90
14687;DHT22;7431;49.440;11.084;2023-12-20T13:52:24;6.70;99.90
14687;DHT22;7431;49.440;11.084;2023-12-20T13:54:50;6.60;99.90
14687;DHT22;7431;49.440;11.084;2023-12-20T13:57:16;6.50;99.90
14687;DHT22;7431;49.440;11.084;2023-12-20T13:59:41;6.50;99.90
14687;DHT22;7431;49.440;11.084;2023-12-20T14:02:07;6.50;99.90
14687;DHT22;7431;49.440;11.084;2023-12-20T14:04:32;7.20;99.90
14687;DHT22;7431;49.440;11.084;2023-12-20T14:06:58;5.60;99.90
14687;DHT22;7431;49.440;11.084;2023-12-20T14:09:24;6.40;99.90
14687;DHT22;7431;49.440;11.084;2023-12-20T14:11:50;6.30;99.90
14687;DHT22;7431;49.440;11.084;2023-12-20T14:14:15;6.30;99.90
14687;DHT22;7431;49.440;11.084;2023-12-20T14:16:41;6.20;99.90
14687;DHT22;7431;49.440;11.084;2023-12-20T14:19:10;6.20;99.90
14687;DHT22;7431;49.440;11.084;2023-12-20T14:21:36;6.20;99.90
14687;DHT22;7431;49.440;11.084;2023-12-20T14:24:01;6.10;99.90
14687;DHT22;7431;49.440;11.084;2023-12-20T14:26:29;6.10;99.90
14687;DHT22;7431;49.440;11.084;2023-12-20T14:28:55;6.10;99.90
14687;DHT22;7431;49.440;11.084;2023-12-20T14:31:20;6.00;99.90
14687;DHT22;7431;49.440;11.084;2023-12-20T14:33:46;6.00;99.90
14687;DHT22;7431;49.440;11.084;2023-12-20T14:36:16;5.90;99.90
14687;DHT22;7431;49.440;11.084;2023-12-20T14:38:43;5.90;99.90
14687;DHT22;7431;49.440;11.084;2023-12-20T14:41:08;5.80;99.90
14687;DHT22;7431;49.440;11.084;2023-12-20T14:43:34;5.80;99.90
14687;DHT22;7431;49.440;11.084;2023-12-20T14:46:00;5.80;99.90
14687;DHT22;7431;49.440;11.084;2023-12-20T14:48:25;5.70;99.90
14687;DHT22;7431;49.440;11.084;2023-12-20T14:50:53;5.70;99.90
14687;DHT22;7431;49.440;11.084;2023-12-20T14:53:18;5.70;99.90
14687;DHT22;7431;49.440;11.084;2023-12-20T14:55:44;6.30;99.90
14687;DHT22;7431;49.440;11.084;2023-12-20T14:58:10;5.60;99.90
14687;DHT22;7431;49.440;11.084;2023-12-20T15:00:35;5.60;99.90
14687;DHT22;7431;49.440;11.084;2023-12-20T15:03:01;5.60;99.90
14687;DHT22;7431;49.440;11.084;2023-12-20T15:05:29;5.60;99.90
14687;DHT22;7431;49.440;11.084;2023-12-20T15:07:55;5.60;99.90
14687;DHT22;7431;49.440;11.084;2023-12-20T15:10:21;5.60;99.90
14687;DHT22;7431;49.440;11.084;2023-12-20T15:12:46;5.60;99.90
14687;DHT22;7431;49.440;11.084;2023-12-20T15:15:12;5.60;99.90
14687;DHT22;7431;49.440;11.084;2023-12-20T15:17:38;5.60;99.90
14687;DHT22;7431;49.440;11.084;2023-12-20T15:20:04;5.60;99.90
14687;DHT22;7431;49.440;11.084;2023-12-20T15:22:30;5.50;99.90
14687;DHT22;7431;49.440;11.084;2023-12-20T15:24:56;6.10;99.90
14687;DHT22;7431;49.440;11.084;2023-12-20T15:27:22;5.50;99.90
14687;DHT22;7431;49.440;11.084;2023-12-20T15:29:48;5.50;99.90
14687;DHT22;7431;49.440;11.084;2023-12-20T15:32:15;5.50;99.90
14687;DHT22;7431;49.440;11.084;2023-12-20T15:34:41;5.40;99.90
14687;DHT22;7431;49.440;11.084;2023-12-20T15:37:07;6.30;99.90
14687;DHT22;7431;49.440;11.084;2023-12-20T15:39:32;5.40;99.90
14687;DHT22;7431;49.440;11.084;2023-12-20T15:41:58;5.40;99.90
14687;DHT22;7431;49.440;11.084;2023-12-20T15:44:23;5.70;1.00
14687;DHT22;7431;49.440;11.084;2023-12-20T15:46:51;5.40;99.90
14687;DHT22;7431;49.440;11.084;2023-12-20T15:49:16;5.40;1.00